Time,TemperatureF,DewpointF,PressureIn,WindDirection,WindDirectionDegrees,WindSpeedMPH,WindSpeedGustMPH,Humidity,HourlyPrecipIn,Conditions,Clouds,dailyrainin,SoftwareType,DateUTC
2013-01-04 00:06:00,53.6,48.9,30.37,West,270,3.8,6.9,84,0.00,,,0.00,pywws,2013-01-04 00:06:00,
2013-01-04 00:16:00,53.6,48.9,30.37,WSW,248,3.1,7.6,84,0.00,,,0.00,pywws,2013-01-04 00:16:00,
2013-01-04 00:26:00,53.4,48.7,30.37,WSW,248,3.1,4.5,84,0.00,,,0.00,pywws,2013-01-04 00:26:00,
2013-01-04 00:36:00,53.4,48.7,30.37,WSW,248,13.6,18.3,84,0.00,,,0.00,pywws,2013-01-04 00:36:00,
2013-01-04 00:46:00,53.4,48.7,30.37,WSW,248,6.0,10.7,84,0.00,,,0.00,pywws,2013-01-04 00:46:00,
2013-01-04 00:56:00,53.4,48.4,30.36,WSW,248,9.8,16.8,83,0.00,,,0.00,pywws,2013-01-04 00:56:00,
2013-01-04 01:06:00,53.6,48.9,30.36,WSW,248,8.3,15.9,84,0.00,,,0.00,pywws,2013-01-04 01:06:00,
2013-01-04 01:16:00,53.4,48.4,30.36,WSW,248,12.1,17.5,83,0.00,,,0.00,pywws,2013-01-04 01:16:00,
2013-01-04 01:26:00,53.4,48.7,30.36,WSW,248,8.3,13.6,84,0.00,,,0.00,pywws,2013-01-04 01:26:00,
2013-01-04 01:36:00,53.2,48.5,30.35,WSW,248,11.4,18.3,84,0.00,,,0.00,pywws,2013-01-04 01:36:00,
2013-01-04 01:46:00,53.2,48.5,30.36,NW,315,7.6,13.0,84,0.00,,,0.00,pywws,2013-01-04 01:46:00,
2013-01-04 01:56:00,53.1,48.4,30.36,South,180,9.2,16.8,84,0.00,,,0.00,pywws,2013-01-04 01:56:00,
2013-01-04 02:06:00,53.1,48.4,30.37,WSW,248,9.2,14.5,84,0.00,,,0.00,pywws,2013-01-04 02:06:00,
2013-01-04 02:16:00,53.1,48.4,30.37,WSW,248,9.2,13.6,84,0.00,,,0.00,pywws,2013-01-04 02:16:00,
2013-01-04 02:26:00,53.2,48.5,30.37,NW,315,9.8,16.8,84,0.00,,,0.00,pywws,2013-01-04 02:26:00,
2013-01-04 02:36:00,53.2,48.5,30.37,WSW,248,10.7,15.2,84,0.00,,,0.00,pywws,2013-01-04 02:36:00,
2013-01-04 02:46:00,53.2,48.5,30.37,NW,315,9.8,20.6,84,0.00,,,0.00,pywws,2013-01-04 02:46:00,
2013-01-04 02:56:00,53.2,48.5,30.38,NW,315,9.8,14.5,84,0.00,,,0.00,pywws,2013-01-04 02:56:00,
2013-01-04 03:06:00,53.1,48.4,30.38,WSW,248,12.1,16.8,84,0.00,,,0.00,pywws,2013-01-04 03:06:00,
2013-01-04 03:16:00,53.2,48.5,30.38,WSW,248,7.6,12.1,84,0.00,,,0.00,pywws,2013-01-04 03:16:00,
2013-01-04 03:26:00,53.2,48.5,30.38,WSW,248,9.8,21.2,84,0.00,,,0.00,pywws,2013-01-04 03:26:00,
2013-01-04 03:36:00,53.2,48.5,30.39,WSW,248,7.6,14.5,84,0.00,,,0.00,pywws,2013-01-04 03:36:00,
2013-01-04 03:46:00,53.2,48.5,30.38,WSW,248,10.7,19.0,84,0.00,,,0.00,pywws,2013-01-04 03:46:00,
2013-01-04 03:56:00,53.2,48.5,30.38,WSW,248,6.0,9.8,84,0.00,,,0.00,pywws,2013-01-04 03:56:00,
2013-01-04 04:07:00,53.1,48.4,30.39,West,270,9.8,13.6,84,0.00,,,0.00,pywws,2013-01-04 04:07:00,
2013-01-04 04:16:00,53.2,48.8,30.38,WSW,248,7.6,13.0,85,0.00,,,0.00,pywws,2013-01-04 04:16:00,
2013-01-04 04:26:00,53.1,48.4,30.38,WSW,248,6.0,10.7,84,0.00,,,0.00,pywws,2013-01-04 04:26:00,
2013-01-04 04:36:00,52.9,48.2,30.38,South,180,6.9,10.7,84,0.00,,,0.00,pywws,2013-01-04 04:36:00,
2013-01-04 04:46:00,52.7,48.0,30.38,WSW,248,4.5,9.2,84,0.00,,,0.00,pywws,2013-01-04 04:46:00,
2013-01-04 04:56:00,52.9,48.5,30.39,WSW,248,6.9,12.1,85,0.00,,,0.00,pywws,2013-01-04 04:56:00,
2013-01-04 05:06:00,53.1,48.4,30.38,WSW,248,8.3,13.6,84,0.00,,,0.00,pywws,2013-01-04 05:06:00,
2013-01-04 05:16:00,53.1,48.4,30.38,WSW,248,9.2,13.0,84,0.00,,,0.00,pywws,2013-01-04 05:16:00,
2013-01-04 05:26:00,53.1,48.4,30.38,NW,315,10.7,18.3,84,0.00,,,0.00,pywws,2013-01-04 05:26:00,
2013-01-04 05:36:00,53.1,48.4,30.38,WSW,248,12.1,16.8,84,0.00,,,0.00,pywws,2013-01-04 05:36:00,
2013-01-04 05:46:00,53.1,48.4,30.38,North,0,11.4,15.9,84,0.00,,,0.00,pywws,2013-01-04 05:46:00,
2013-01-04 05:56:00,52.9,48.2,30.38,WSW,248,11.4,19.0,84,0.00,,,0.00,pywws,2013-01-04 05:56:00,
2013-01-04 06:06:00,52.9,48.2,30.40,North,0,3.8,10.7,84,0.00,,,0.00,pywws,2013-01-04 06:06:00,
2013-01-04 06:16:00,52.9,48.2,30.41,SW,225,7.6,13.0,84,0.00,,,0.00,pywws,2013-01-04 06:16:00,
2013-01-04 06:26:00,52.9,47.9,30.40,South,180,6.0,9.8,83,0.00,,,0.00,pywws,2013-01-04 06:26:00,
2013-01-04 06:36:00,52.9,47.9,30.40,WSW,248,8.3,15.2,83,0.00,,,0.00,pywws,2013-01-04 06:36:00,
2013-01-04 06:46:00,52.9,47.9,30.40,WSW,248,4.5,9.2,83,0.00,,,0.00,pywws,2013-01-04 06:46:00,
2013-01-04 06:56:00,52.9,47.9,30.40,WSW,248,5.4,7.6,83,0.00,,,0.00,pywws,2013-01-04 06:56:00,
2013-01-04 07:06:00,52.7,47.7,30.40,WSW,248,9.8,18.3,83,0.00,,,0.00,pywws,2013-01-04 07:06:00,
2013-01-04 07:16:00,52.5,47.5,30.39,WSW,248,9.8,19.7,83,0.00,,,0.00,pywws,2013-01-04 07:16:00,
2013-01-04 07:26:00,52.2,46.8,30.39,WSW,248,9.8,13.6,82,0.00,,,0.00,pywws,2013-01-04 07:26:00,
2013-01-04 07:36:00,52.0,46.7,30.38,WSW,248,9.2,15.9,82,0.00,,,0.00,pywws,2013-01-04 07:36:00,
2013-01-04 07:46:00,52.0,46.7,30.38,North,0,11.4,22.8,82,0.00,,,0.00,pywws,2013-01-04 07:46:00,
2013-01-04 07:56:00,52.2,46.8,30.38,WSW,248,10.7,14.5,82,0.00,,,0.00,pywws,2013-01-04 07:56:00,
2013-01-04 08:06:00,52.2,46.8,30.40,WSW,248,9.8,16.8,82,0.00,,,0.00,pywws,2013-01-04 08:06:00,
2013-01-04 08:16:00,52.3,47.0,30.39,WSW,248,11.4,20.6,82,0.00,,,0.00,pywws,2013-01-04 08:16:00,
2013-01-04 08:26:00,52.3,47.0,30.39,WSW,248,10.7,16.8,82,0.00,,,0.00,pywws,2013-01-04 08:26:00,
2013-01-04 08:36:00,52.3,47.0,30.39,WSW,248,9.2,15.2,82,0.00,,,0.00,pywws,2013-01-04 08:36:00,
2013-01-04 08:46:00,52.3,47.0,30.40,NNW,338,6.0,12.1,82,0.00,,,0.00,pywws,2013-01-04 08:46:00,
2013-01-04 08:56:00,52.3,47.0,30.40,WSW,248,7.6,13.6,82,0.00,,,0.00,pywws,2013-01-04 08:56:00,
2013-01-04 09:06:00,52.3,47.0,30.40,NW,315,5.4,9.2,82,0.00,,,0.00,pywws,2013-01-04 09:06:00,
2013-01-04 09:16:00,52.2,46.8,30.40,WSW,248,11.4,19.0,82,0.00,,,0.00,pywws,2013-01-04 09:16:00,
2013-01-04 09:26:00,52.3,47.0,30.41,WSW,248,6.0,12.1,82,0.00,,,0.00,pywws,2013-01-04 09:26:00,
2013-01-04 09:36:00,52.3,47.0,30.41,WSW,248,8.3,11.4,82,0.00,,,0.00,pywws,2013-01-04 09:36:00,
2013-01-04 09:46:00,52.3,47.0,30.41,WSW,248,5.4,9.8,82,0.00,,,0.00,pywws,2013-01-04 09:46:00,
2013-01-04 09:56:00,52.3,47.0,30.40,WSW,248,4.5,6.9,82,0.00,,,0.00,pywws,2013-01-04 09:56:00,
2013-01-04 10:06:00,52.3,47.0,30.40,WSW,248,5.4,10.7,82,0.00,,,0.00,pywws,2013-01-04 10:06:00,
2013-01-04 10:16:00,52.3,47.0,30.40,WSW,248,7.6,11.4,82,0.00,,,0.00,pywws,2013-01-04 10:16:00,
2013-01-04 10:26:00,52.5,46.9,30.40,South,180,6.0,10.7,81,0.00,,,0.00,pywws,2013-01-04 10:26:00,
2013-01-04 10:36:00,52.5,46.9,30.41,South,180,4.5,7.6,81,0.00,,,0.00,pywws,2013-01-04 10:36:00,
2013-01-04 10:46:00,52.7,47.0,30.41,South,180,7.6,10.7,81,0.00,,,0.00,pywws,2013-01-04 10:46:00,
2013-01-04 10:56:00,52.7,47.0,30.41,WSW,248,9.2,14.5,81,0.00,,,0.00,pywws,2013-01-04 10:56:00,
2013-01-04 11:06:00,52.9,47.2,30.40,WSW,248,7.6,16.8,81,0.00,,,0.00,pywws,2013-01-04 11:06:00,
2013-01-04 11:16:00,52.9,46.9,30.41,West,270,7.6,13.0,80,0.00,,,0.00,pywws,2013-01-04 11:16:00,
2013-01-04 11:26:00,52.9,46.9,30.41,WSW,248,5.4,9.8,80,0.00,,,0.00,pywws,2013-01-04 11:26:00,
2013-01-04 11:36:00,53.1,47.1,30.41,WSW,248,6.0,9.2,80,0.00,,,0.00,pywws,2013-01-04 11:36:00,
2013-01-04 11:46:00,53.1,47.1,30.41,WSW,248,7.6,14.5,80,0.00,,,0.00,pywws,2013-01-04 11:46:00,
2013-01-04 11:56:00,53.2,47.2,30.42,WSW,248,5.4,8.3,80,0.00,,,0.00,pywws,2013-01-04 11:56:00,
2013-01-04 12:06:00,53.8,47.8,30.42,WSW,248,5.4,9.2,80,0.00,,,0.00,pywws,2013-01-04 12:06:00,
2013-01-04 12:16:00,54.5,48.1,30.41,NW,315,4.5,6.9,79,0.00,,,0.00,pywws,2013-01-04 12:16:00,
2013-01-04 12:26:00,54.5,47.8,30.41,WSW,248,8.3,13.6,78,0.00,,,0.00,pywws,2013-01-04 12:26:00,
2013-01-04 12:36:00,54.5,47.4,30.41,WSW,248,6.9,11.4,77,0.00,,,0.00,pywws,2013-01-04 12:36:00,
2013-01-04 12:46:00,54.5,47.1,30.40,WSW,248,9.8,15.2,76,0.00,,,0.00,pywws,2013-01-04 12:46:00,
2013-01-04 12:56:00,54.7,47.3,30.41,West,270,6.0,13.0,76,0.00,,,0.00,pywws,2013-01-04 12:56:00,
2013-01-04 13:06:00,55.0,47.3,30.41,WNW,292,5.4,9.2,75,0.00,,,0.00,pywws,2013-01-04 13:06:00,
2013-01-04 13:16:00,54.7,46.2,30.41,NW,315,8.3,11.4,73,0.00,,,0.00,pywws,2013-01-04 13:16:00,
2013-01-04 13:26:00,54.3,45.9,30.41,WSW,248,4.5,8.3,73,0.00,,,0.00,pywws,2013-01-04 13:26:00,
2013-01-04 13:36:00,54.0,45.5,30.41,NW,315,7.6,11.4,73,0.00,,,0.00,pywws,2013-01-04 13:36:00,
2013-01-04 13:46:00,53.6,45.2,30.41,WSW,248,12.1,19.0,73,0.00,,,0.00,pywws,2013-01-04 13:46:00,
2013-01-04 13:56:00,53.6,45.2,30.41,NW,315,10.7,19.7,73,0.00,,,0.00,pywws,2013-01-04 13:56:00,
2013-01-04 14:06:00,53.4,45.0,30.42,WSW,248,9.2,14.5,73,0.00,,,0.00,pywws,2013-01-04 14:06:00,
2013-01-04 14:16:00,53.1,44.6,30.42,WSW,248,7.6,15.9,73,0.00,,,0.00,pywws,2013-01-04 14:16:00,
2013-01-04 14:26:00,52.9,44.5,30.42,WSW,248,5.4,12.1,73,0.00,,,0.00,pywws,2013-01-04 14:26:00,
2013-01-04 14:36:00,52.5,44.1,30.42,South,180,5.4,8.3,73,0.00,,,0.00,pywws,2013-01-04 14:36:00,
2013-01-04 14:46:00,52.3,43.9,30.42,South,180,5.4,10.7,73,0.00,,,0.00,pywws,2013-01-04 14:46:00,
2013-01-04 14:56:00,52.7,45.0,30.43,South,180,6.9,10.7,75,0.00,,,0.00,pywws,2013-01-04 14:56:00,
2013-01-04 15:06:00,53.1,45.3,30.42,WSW,248,6.0,9.8,75,0.00,,,0.00,pywws,2013-01-04 15:06:00,
2013-01-04 15:16:00,52.9,45.2,30.43,South,180,4.5,9.2,75,0.00,,,0.00,pywws,2013-01-04 15:16:00,
2013-01-04 15:26:00,52.7,45.0,30.42,WSW,248,3.1,9.2,75,0.00,,,0.00,pywws,2013-01-04 15:26:00,
2013-01-04 15:36:00,52.2,44.5,30.43,SE,135,6.0,10.7,75,0.00,,,0.00,pywws,2013-01-04 15:36:00,
2013-01-04 15:46:00,51.6,44.0,30.43,South,180,4.5,9.8,75,0.00,,,0.00,pywws,2013-01-04 15:46:00,
2013-01-04 15:56:00,51.3,44.0,30.43,WSW,248,5.4,7.6,76,0.00,,,0.00,pywws,2013-01-04 15:56:00,
2013-01-04 16:06:00,50.9,43.6,30.43,WSW,248,3.1,6.0,76,0.00,,,0.00,pywws,2013-01-04 16:06:00,
2013-01-04 16:16:00,50.9,43.9,30.43,WSW,248,5.4,7.6,77,0.00,,,0.00,pywws,2013-01-04 16:16:00,
2013-01-04 16:26:00,50.7,43.8,30.43,WSW,248,4.5,7.6,77,0.00,,,0.00,pywws,2013-01-04 16:26:00,
2013-01-04 16:36:00,50.5,43.6,30.43,South,180,3.1,6.0,77,0.00,,,0.00,pywws,2013-01-04 16:36:00,
2013-01-04 16:46:00,50.4,43.4,30.43,SE,135,4.5,7.6,77,0.00,,,0.00,pywws,2013-01-04 16:46:00,
2013-01-04 16:56:00,50.2,43.3,30.43,South,180,5.4,8.3,77,0.00,,,0.00,pywws,2013-01-04 16:56:00,
2013-01-04 17:06:00,50.0,43.4,30.43,WSW,248,6.0,9.8,78,0.00,,,0.00,pywws,2013-01-04 17:06:00,
2013-01-04 17:16:00,50.0,43.4,30.42,WSW,248,2.2,4.5,78,0.00,,,0.00,pywws,2013-01-04 17:16:00,
2013-01-04 17:26:00,50.0,43.4,30.43,WSW,248,5.4,9.2,78,0.00,,,0.00,pywws,2013-01-04 17:26:00,
2013-01-04 17:36:00,49.6,43.1,30.43,South,180,4.5,8.3,78,0.00,,,0.00,pywws,2013-01-04 17:36:00,
2013-01-04 17:46:00,49.6,43.4,30.43,West,270,9.2,13.0,79,0.00,,,0.00,pywws,2013-01-04 17:46:00,
2013-01-04 17:56:00,49.8,43.6,30.43,WSW,248,9.8,15.2,79,0.00,,,0.00,pywws,2013-01-04 17:56:00,
2013-01-04 18:06:00,50.2,43.9,30.43,WSW,248,9.2,14.5,79,0.00,,,0.00,pywws,2013-01-04 18:06:00,
2013-01-04 18:16:00,50.4,44.4,30.43,WSW,248,9.2,13.6,80,0.00,,,0.00,pywws,2013-01-04 18:16:00,
2013-01-04 18:26:00,50.4,44.4,30.43,South,180,7.6,14.5,80,0.00,,,0.00,pywws,2013-01-04 18:26:00,
2013-01-04 18:36:00,50.2,44.3,30.44,WNW,292,6.9,10.7,80,0.00,,,0.00,pywws,2013-01-04 18:36:00,
2013-01-04 18:46:00,50.4,44.4,30.44,WSW,248,6.0,11.4,80,0.00,,,0.00,pywws,2013-01-04 18:46:00,
2013-01-04 18:56:00,50.5,44.6,30.44,South,180,3.1,6.9,80,0.00,,,0.00,pywws,2013-01-04 18:56:00,
2013-01-04 19:06:00,50.5,44.6,30.44,WSW,248,3.8,6.0,80,0.00,,,0.00,pywws,2013-01-04 19:06:00,
2013-01-04 19:16:00,50.7,45.1,30.44,South,180,3.1,6.9,81,0.00,,,0.00,pywws,2013-01-04 19:16:00,
2013-01-04 19:26:00,50.7,45.1,30.44,SE,135,3.8,6.9,81,0.00,,,0.00,pywws,2013-01-04 19:26:00,
2013-01-04 19:36:00,50.7,45.1,30.43,WSW,248,5.4,7.6,81,0.00,,,0.00,pywws,2013-01-04 19:36:00,
2013-01-04 19:46:00,50.9,45.3,30.44,South,180,5.4,8.3,81,0.00,,,0.00,pywws,2013-01-04 19:46:00,
2013-01-04 19:56:00,50.9,45.3,30.44,WSW,248,4.5,11.4,81,0.00,,,0.00,pywws,2013-01-04 19:56:00,
2013-01-04 20:07:00,50.9,45.3,30.43,SE,135,3.1,5.4,81,0.00,,,0.00,pywws,2013-01-04 20:07:00,
2013-01-04 20:16:00,50.9,45.6,30.43,WSW,248,3.8,6.9,82,0.00,,,0.00,pywws,2013-01-04 20:16:00,
2013-01-04 20:26:00,50.9,45.6,30.44,WSW,248,2.2,4.5,82,0.00,,,0.00,pywws,2013-01-04 20:26:00,
2013-01-04 20:36:00,51.1,45.8,30.44,WSW,248,4.5,9.2,82,0.00,,,0.00,pywws,2013-01-04 20:36:00,
2013-01-04 20:46:00,51.1,45.8,30.44,WSW,248,6.9,12.1,82,0.00,,,0.00,pywws,2013-01-04 20:46:00,
2013-01-04 20:56:00,51.1,45.8,30.43,WSW,248,4.5,6.9,82,0.00,,,0.00,pywws,2013-01-04 20:56:00,
2013-01-04 21:06:00,51.1,45.8,30.43,WSW,248,8.3,13.6,82,0.00,,,0.00,pywws,2013-01-04 21:06:00,
2013-01-04 21:16:00,51.1,45.5,30.44,SE,135,5.4,6.9,81,0.00,,,0.00,pywws,2013-01-04 21:16:00,
2013-01-04 21:26:00,51.1,45.5,30.44,South,180,5.4,9.8,81,0.00,,,0.00,pywws,2013-01-04 21:26:00,
2013-01-04 21:36:00,51.1,45.5,30.44,WSW,248,5.4,8.3,81,0.00,,,0.00,pywws,2013-01-04 21:36:00,
2013-01-04 21:46:00,51.1,45.5,30.44,NW,315,6.9,11.4,81,0.00,,,0.00,pywws,2013-01-04 21:46:00,
2013-01-04 21:56:00,51.1,45.1,30.43,WSW,248,9.8,20.6,80,0.00,,,0.00,pywws,2013-01-04 21:56:00,
2013-01-04 22:06:00,51.1,45.1,30.43,WSW,248,7.6,11.4,80,0.00,,,0.00,pywws,2013-01-04 22:06:00,
2013-01-04 22:16:00,51.1,45.1,30.43,WSW,248,4.5,8.3,80,0.00,,,0.00,pywws,2013-01-04 22:16:00,
2013-01-04 22:26:00,51.1,45.1,30.43,South,180,8.3,15.2,80,0.00,,,0.00,pywws,2013-01-04 22:26:00,
2013-01-04 22:36:00,51.1,45.1,30.43,WSW,248,3.8,7.6,80,0.00,,,0.00,pywws,2013-01-04 22:36:00,
2013-01-04 22:46:00,50.9,45.0,30.43,WSW,248,5.4,10.7,80,0.00,,,0.00,pywws,2013-01-04 22:46:00,
2013-01-04 22:56:00,50.9,45.0,30.43,WSW,248,7.6,9.8,80,0.00,,,0.00,pywws,2013-01-04 22:56:00,
2013-01-04 23:06:00,50.7,44.8,30.44,NW,315,5.4,7.6,80,0.00,,,0.00,pywws,2013-01-04 23:06:00,
2013-01-04 23:16:00,50.7,44.8,30.44,WSW,248,6.0,10.7,80,0.00,,,0.00,pywws,2013-01-04 23:16:00,
2013-01-04 23:26:00,50.7,44.8,30.44,WSW,248,4.5,6.9,80,0.00,,,0.00,pywws,2013-01-04 23:26:00,
2013-01-04 23:36:00,50.7,44.8,30.43,SSW,202,6.0,9.2,80,0.00,,,0.00,pywws,2013-01-04 23:36:00,
2013-01-04 23:46:00,50.7,44.4,30.43,WSW,248,9.8,13.6,79,0.00,,,0.00,pywws,2013-01-04 23:46:00,
2013-01-04 23:56:00,50.7,44.4,30.43,South,180,4.5,9.2,79,0.00,,,0.00,pywws,2013-01-04 23:56:00,